Time;durP1;ratioP1;P1;durP2;ratioP2;P2;SDS_P1;SDS_P2;PMS_P1;PMS_P2;Temp;Humidity;BMP_temperature;BMP_pressure;BME280_temperature;BME280_humidity;BME280_pressure;Samples;Min_cycle;Max_cycle;Signal;HPM_P1;HPM_P2
2023/09/05 00:00:48;;;;;;;3.70;2.50;;;;;;;;;;5052299;28;20963;-55
2023/09/05 00:03:18;;;;;;;2.57;1.70;;;;;;;;;;5051452;28;20544;-57
2023/09/05 00:05:46;;;;;;;3.77;2.03;;;;;;;;;;5052261;28;20446;-57
2023/09/05 00:08:13;;;;;;;5.53;2.83;;;;;;;;;;5052499;28;20513;-58
2023/09/05 00:10:41;;;;;;;2.73;2.43;;;;;;;;;;5052636;28;20468;-57
2023/09/05 00:13:09;;;;;;;2.97;2.37;;;;;;;;;;5052062;28;20549;-58
2023/09/05 00:15:36;;;;;;;6.23;2.60;;;;;;;;;;5051844;28;20452;-57
2023/09/05 00:18:04;;;;;;;4.40;1.90;;;;;;;;;;5051903;28;20523;-57
2023/09/05 00:20:32;;;;;;;4.53;2.20;;;;;;;;;;5052028;28;20467;-58
2023/09/05 00:22:59;;;;;;;2.50;1.97;;;;;;;;;;5051646;28;20967;-58
2023/09/05 00:25:27;;;;;;;3.20;2.27;;;;;;;;;;5051955;28;20520;-58
2023/09/05 00:27:54;;;;;;;2.70;1.77;;;;;;;;;;5051272;28;21011;-57
2023/09/05 00:30:22;;;;;;;2.67;1.80;;;;;;;;;;5051861;28;20481;-57
2023/09/05 00:32:49;;;;;;;3.53;2.30;;;;;;;;;;5051481;28;20437;-57
2023/09/05 00:35:17;;;;;;;3.60;2.40;;;;;;;;;;5051561;28;20477;-57
2023/09/05 00:37:47;;;;;;;3.43;2.00;;;;;;;;;;5051470;28;20441;-55
2023/09/05 00:40:15;;;;;;;5.43;2.20;;;;;;;;;;5051534;28;20445;-57
2023/09/05 00:42:42;;;;;;;3.03;2.20;;;;;;;;;;5051346;28;20933;-57
2023/09/05 00:45:10;;;;;;;3.90;2.33;;;;;;;;;;5051535;28;20438;-57
2023/09/05 00:47:38;;;;;;;2.63;2.00;;;;;;;;;;5051496;28;20477;-57
2023/09/05 00:50:07;;;;;;;3.90;2.17;;;;;;;;;;5051176;28;20568;-58
2023/09/05 00:52:36;;;;;;;2.80;2.03;;;;;;;;;;5051284;28;20452;-56
2023/09/05 00:55:05;;;;;;;2.83;1.73;;;;;;;;;;5050856;28;20473;-55
2023/09/05 00:57:32;;;;;;;2.97;2.07;;;;;;;;;;5050329;28;20524;-56
2023/09/05 01:00:00;;;;;;;3.10;2.00;;;;;;;;;;5050879;28;21015;-57
2023/09/05 01:02:27;;;;;;;2.70;1.83;;;;;;;;;;5050460;28;20473;-57
2023/09/05 01:04:54;;;;;;;5.77;2.10;;;;;;;;;;5050911;28;20457;-57
2023/09/05 01:07:24;;;;;;;3.30;1.90;;;;;;;;;;5051237;28;20491;-55
2023/09/05 01:09:54;;;;;;;3.13;2.40;;;;;;;;;;5051154;28;20916;-57
2023/09/05 01:12:22;;;;;;;3.67;2.20;;;;;;;;;;5051164;28;20465;-54
2023/09/05 01:14:50;;;;;;;3.27;2.13;;;;;;;;;;5050535;28;21043;-55
2023/09/05 01:17:17;;;;;;;3.00;2.03;;;;;;;;;;5051169;28;20524;-57
2023/09/05 01:19:44;;;;;;;2.63;1.70;;;;;;;;;;5050880;28;20437;-56
2023/09/05 01:22:17;;;;;;;3.60;2.40;;;;;;;;;;5050561;28;20491;-55
2023/09/05 01:24:49;;;;;;;2.60;1.67;;;;;;;;;;5051309;28;20457;-55
2023/09/05 01:27:19;;;;;;;2.87;1.73;;;;;;;;;;5050968;28;20445;-55
2023/09/05 01:29:46;;;;;;;4.10;2.50;;;;;;;;;;5050368;28;20483;-56
2023/09/05 01:32:14;;;;;;;2.90;2.20;;;;;;;;;;5050470;28;20469;-56
2023/09/05 01:34:41;;;;;;;3.10;2.10;;;;;;;;;;5050720;28;20476;-55
2023/09/05 01:37:10;;;;;;;3.03;2.13;;;;;;;;;;5051202;28;20535;-56
2023/09/05 01:39:37;;;;;;;8.93;2.57;;;;;;;;;;5050807;28;20818;-55
2023/09/05 01:42:06;;;;;;;3.60;2.30;;;;;;;;;;5050466;28;20814;-55
2023/09/05 01:44:36;;;;;;;3.40;2.50;;;;;;;;;;5050349;28;20540;-54
2023/09/05 01:47:03;;;;;;;2.90;1.90;;;;;;;;;;5050789;28;20449;-56
2023/09/05 01:49:30;;;;;;;2.50;1.90;;;;;;;;;;5053821;28;20512;-56
2023/09/05 01:51:57;;;;;;;3.47;1.97;;;;;;;;;;5054631;28;20948;-55
2023/09/05 01:54:25;;;;;;;4.33;2.00;;;;;;;;;;5054317;28;20568;-56
2023/09/05 01:56:52;;;;;;;3.33;2.00;;;;;;;;;;5053672;28;20524;-55
2023/09/05 01:59:22;;;;;;;3.17;2.57;;;;;;;;;;5054807;28;20519;-55
2023/09/05 02:01:49;;;;;;;2.80;2.00;;;;;;;;;;5054014;28;20508;-56
2023/09/05 02:04:16;;;;;;;4.30;2.20;;;;;;;;;;5054364;28;20540;-55
2023/09/05 02:06:43;;;;;;;6.80;2.23;;;;;;;;;;5054627;28;20476;-55
2023/09/05 02:09:11;;;;;;;3.60;2.27;;;;;;;;;;5054194;28;21042;-56
2023/09/05 02:11:38;;;;;;;4.73;3.20;;;;;;;;;;5054079;28;20469;-57
2023/09/05 02:14:05;;;;;;;5.30;2.30;;;;;;;;;;5054521;28;20566;-56
2023/09/05 02:16:34;;;;;;;2.63;1.87;;;;;;;;;;5052969;28;20449;-55
2023/09/05 02:19:01;;;;;;;4.17;2.20;;;;;;;;;;5052793;28;20908;-55
2023/09/05 02:21:28;;;;;;;3.10;2.10;;;;;;;;;;5052656;28;20476;-56
2023/09/05 02:23:55;;;;;;;2.73;1.90;;;;;;;;;;5052657;28;20584;-56
2023/09/05 02:26:23;;;;;;;2.80;1.97;;;;;;;;;;5066960;28;20475;-55
2023/09/05 02:28:50;;;;;;;4.93;1.97;;;;;;;;;;5072517;28;20563;-57
2023/09/05 02:31:17;;;;;;;4.50;2.00;;;;;;;;;;5073174;28;20497;-55
2023/09/05 02:33:46;;;;;;;2.97;1.67;;;;;;;;;;5073733;28;20488;-56
2023/09/05 02:36:15;;;;;;;5.20;4.70;;;;;;;;;;5073829;28;20955;-55
2023/09/05 02:38:42;;;;;;;2.53;1.83;;;;;;;;;;5073614;28;20498;-55
2023/09/05 02:41:12;;;;;;;2.23;1.63;;;;;;;;;;5073725;28;20853;-55
2023/09/05 02:46:22;;;;;;;4.23;2.67;;;;;;;;;;5072178;22;20488;-83
2023/09/05 02:48:50;;;;;;;4.43;2.40;;;;;;;;;;5045222;28;20512;-83
2023/09/05 02:51:18;;;;;;;3.60;2.63;;;;;;;;;;5057875;28;20441;-85
2023/09/05 02:53:45;;;;;;;2.73;2.27;;;;;;;;;;5056685;28;20473;-83
2023/09/05 02:56:14;;;;;;;3.80;2.23;;;;;;;;;;5056028;28;20946;-82
2023/09/05 02:58:41;;;;;;;5.10;2.40;;;;;;;;;;5055785;28;20473;-82
2023/09/05 03:01:11;;;;;;;6.07;2.30;;;;;;;;;;5053716;28;20465;-83
2023/09/05 03:03:39;;;;;;;3.67;2.40;;;;;;;;;;5054520;28;20942;-82
2023/09/05 03:06:11;;;;;;;2.63;2.17;;;;;;;;;;5054295;28;20469;-82
2023/09/05 03:08:41;;;;;;;3.40;2.30;;;;;;;;;;5054688;28;20434;-83
2023/09/05 03:11:09;;;;;;;4.27;2.37;;;;;;;;;;5054584;28;20472;-82
2023/09/05 03:13:36;;;;;;;3.50;2.20;;;;;;;;;;5054486;28;20488;-83
2023/09/05 03:16:03;;;;;;;4.20;2.43;;;;;;;;;;5054527;28;20874;-83
2023/09/05 03:18:30;;;;;;;3.83;2.80;;;;;;;;;;5055041;28;20441;-83
2023/09/05 03:20:58;;;;;;;3.20;2.10;;;;;;;;;;5055150;28;21000;-83
2023/09/05 03:23:27;;;;;;;3.40;2.40;;;;;;;;;;5055055;28;20442;-83
2023/09/05 03:25:54;;;;;;;2.33;2.07;;;;;;;;;;5054816;28;20452;-82
2023/09/05 03:28:21;;;;;;;3.53;2.43;;;;;;;;;;5054422;28;20505;-83
2023/09/05 03:30:49;;;;;;;3.70;2.60;;;;;;;;;;5054344;28;20517;-83
2023/09/05 03:33:16;;;;;;;3.50;2.60;;;;;;;;;;5054845;28;20554;-83
2023/09/05 03:35:44;;;;;;;3.90;2.40;;;;;;;;;;5055012;28;20472;-83
2023/09/05 03:38:11;;;;;;;3.80;2.47;;;;;;;;;;5055317;28;20476;-83
2023/09/05 03:40:40;;;;;;;3.63;2.70;;;;;;;;;;5054501;28;20468;-83
2023/09/05 03:43:07;;;;;;;3.57;2.70;;;;;;;;;;5055687;28;20437;-83
2023/09/05 03:45:35;;;;;;;3.43;2.50;;;;;;;;;;5053527;28;20587;-85
2023/09/05 03:48:02;;;;;;;4.43;2.50;;;;;;;;;;5054590;28;20976;-83
2023/09/05 03:50:29;;;;;;;2.30;1.93;;;;;;;;;;5054580;28;20535;-83
2023/09/05 03:52:57;;;;;;;2.80;2.20;;;;;;;;;;5055420;28;20992;-83
2023/09/05 03:55:24;;;;;;;3.10;2.40;;;;;;;;;;5055254;28;20437;-83
2023/09/05 03:57:52;;;;;;;4.03;2.50;;;;;;;;;;5054921;28;20487;-83
2023/09/05 04:00:20;;;;;;;3.13;2.37;;;;;;;;;;5055865;28;20469;-83
2023/09/05 04:02:47;;;;;;;4.37;2.97;;;;;;;;;;5055764;28;20465;-83
2023/09/05 04:05:14;;;;;;;4.40;2.40;;;;;;;;;;5055694;28;20469;-83
2023/09/05 04:07:41;;;;;;;3.40;2.50;;;;;;;;;;5056470;28;20499;-83
2023/09/05 04:10:09;;;;;;;3.77;2.10;;;;;;;;;;5055816;28;20886;-83
2023/09/05 04:12:37;;;;;;;3.60;2.33;;;;;;;;;;5055504;28;20445;-83
2023/09/05 04:15:06;;;;;;;4.63;2.53;;;;;;;;;;5057162;28;20904;-83
2023/09/05 04:17:33;;;;;;;6.80;2.70;;;;;;;;;;5055638;28;20496;-83
2023/09/05 04:20:03;;;;;;;8.40;2.73;;;;;;;;;;5056232;28;20595;-83
2023/09/05 04:22:31;;;;;;;4.20;2.40;;;;;;;;;;5056010;28;20465;-83
2023/09/05 04:24:58;;;;;;;2.67;1.90;;;;;;;;;;5056094;28;20930;-83
2023/09/05 04:27:25;;;;;;;2.37;1.67;;;;;;;;;;5056155;28;20499;-83
2023/09/05 04:29:54;;;;;;;3.70;2.47;;;;;;;;;;5054813;28;20512;-83
2023/09/05 04:32:28;;;;;;;3.50;1.97;;;;;;;;;;5052203;28;20544;-82
2023/09/05 04:34:56;;;;;;;3.50;2.47;;;;;;;;;;5053283;28;20464;-83
2023/09/05 04:37:23;;;;;;;4.03;2.03;;;;;;;;;;5053729;28;20441;-83
2023/09/05 04:39:51;;;;;;;5.47;2.77;;;;;;;;;;5053118;28;20469;-83
2023/09/05 04:42:18;;;;;;;3.20;2.30;;;;;;;;;;5053724;28;20489;-83
2023/09/05 04:44:45;;;;;;;2.97;2.20;;;;;;;;;;5053721;28;20502;-84
2023/09/05 04:47:20;;;;;;;3.50;2.70;;;;;;;;;;5054078;28;20490;-83
2023/09/05 04:49:49;;;;;;;4.57;2.40;;;;;;;;;;5054304;28;20473;-83
2023/09/05 04:52:16;;;;;;;2.90;2.27;;;;;;;;;;5053411;28;20970;-83
2023/09/05 04:54:43;;;;;;;9.30;2.30;;;;;;;;;;5053720;28;20475;-84
2023/09/05 04:57:11;;;;;;;6.33;2.47;;;;;;;;;;5052974;28;20437;-83
2023/09/05 04:59:39;;;;;;;2.67;1.83;;;;;;;;;;5053966;28;20441;-83
2023/09/05 05:02:07;;;;;;;2.97;2.07;;;;;;;;;;5052100;28;20519;-83
2023/09/05 05:04:34;;;;;;;4.63;2.70;;;;;;;;;;5053252;28;20464;-83
2023/09/05 05:07:03;;;;;;;4.43;2.50;;;;;;;;;;5050862;28;20704;-84
2023/09/05 05:09:30;;;;;;;4.20;2.60;;;;;;;;;;5053964;28;20473;-83
2023/09/05 05:11:57;;;;;;;5.67;2.20;;;;;;;;;;5053181;28;20522;-84
2023/09/05 05:14:24;;;;;;;3.80;1.87;;;;;;;;;;5053095;28;20472;-83
2023/09/05 05:16:53;;;;;;;3.43;2.20;;;;;;;;;;5053690;28;20563;-82
2023/09/05 05:19:20;;;;;;;3.20;2.27;;;;;;;;;;5052891;28;20449;-82
2023/09/05 05:21:48;;;;;;;4.50;2.07;;;;;;;;;;5050845;28;21013;-82
2023/09/05 05:24:16;;;;;;;4.10;2.33;;;;;;;;;;5051366;28;20494;-83
2023/09/05 05:26:44;;;;;;;3.60;2.20;;;;;;;;;;5052223;28;20473;-82
2023/09/05 05:29:11;;;;;;;2.67;2.13;;;;;;;;;;5052028;28;20532;-82
2023/09/05 05:31:39;;;;;;;4.30;3.10;;;;;;;;;;5051239;28;20477;-82
2023/09/05 05:34:06;;;;;;;4.50;2.37;;;;;;;;;;5051866;28;20448;-82
2023/09/05 05:36:34;;;;;;;3.40;2.20;;;;;;;;;;5051006;28;20477;-82
2023/09/05 05:39:01;;;;;;;5.47;2.70;;;;;;;;;;5053840;28;20476;-83
2023/09/05 05:41:30;;;;;;;3.83;2.50;;;;;;;;;;5054905;28;20492;-84
2023/09/05 05:43:58;;;;;;;3.10;2.47;;;;;;;;;;5054394;28;20445;-84
2023/09/05 05:46:25;;;;;;;4.53;2.03;;;;;;;;;;5054289;28;21026;-85
2023/09/05 05:48:52;;;;;;;2.47;1.70;;;;;;;;;;5054420;28;20480;-85
2023/09/05 05:51:20;;;;;;;3.70;2.43;;;;;;;;;;5055164;28;20535;-83
2023/09/05 05:53:49;;;;;;;4.43;2.57;;;;;;;;;;5054037;28;20472;-85
2023/09/05 05:56:17;;;;;;;4.30;2.60;;;;;;;;;;5051557;28;20472;-85
2023/09/05 05:58:48;;;;;;;4.10;2.70;;;;;;;;;;5051001;28;20532;-85
2023/09/05 06:01:17;;;;;;;3.93;2.50;;;;;;;;;;5049678;28;20464;-85
2023/09/05 06:03:45;;;;;;;3.10;1.93;;;;;;;;;;5052533;28;20441;-84
2023/09/05 06:06:12;;;;;;;3.00;2.40;;;;;;;;;;5051023;28;20484;-84
2023/09/05 06:08:40;;;;;;;2.40;1.80;;;;;;;;;;5050970;28;20468;-85
2023/09/05 06:11:07;;;;;;;2.60;1.90;;;;;;;;;;5050993;28;20982;-85
2023/09/05 06:13:35;;;;;;;3.33;2.17;;;;;;;;;;5051463;28;20446;-85
2023/09/05 06:16:03;;;;;;;4.50;3.10;;;;;;;;;;5051423;28;20495;-84
2023/09/05 06:18:31;;;;;;;3.00;1.80;;;;;;;;;;5050432;28;21096;-85
2023/09/05 06:20:58;;;;;;;3.37;2.07;;;;;;;;;;5048740;28;21039;-85
2023/09/05 06:23:25;;;;;;;4.23;2.07;;;;;;;;;;5050823;28;20505;-85
2023/09/05 06:25:52;;;;;;;2.70;2.03;;;;;;;;;;5051850;28;20468;-85
2023/09/05 06:28:20;;;;;;;3.30;2.27;;;;;;;;;;5052108;28;20434;-84
2023/09/05 06:30:47;;;;;;;5.70;2.57;;;;;;;;;;5051527;28;21009;-85
2023/09/05 06:33:16;;;;;;;3.00;2.20;;;;;;;;;;5051773;28;20437;-85
2023/09/05 06:35:43;;;;;;;3.63;2.23;;;;;;;;;;5054956;28;20445;-85
2023/09/05 06:38:10;;;;;;;3.37;2.23;;;;;;;;;;5056302;28;20673;-84
2023/09/05 06:40:40;;;;;;;4.70;2.57;;;;;;;;;;5055466;28;20458;-85
2023/09/05 06:43:09;;;;;;;5.30;2.40;;;;;;;;;;5055599;28;20930;-85
2023/09/05 06:45:36;;;;;;;3.60;2.60;;;;;;;;;;5039794;28;20480;-84
2023/09/05 06:48:03;;;;;;;3.70;2.30;;;;;;;;;;5055880;28;20846;-85
2023/09/05 06:50:32;;;;;;;3.20;2.47;;;;;;;;;;5043697;28;20481;-84
2023/09/05 06:53:00;;;;;;;5.90;2.70;;;;;;;;;;5050928;28;20852;-85
2023/09/05 06:55:28;;;;;;;3.70;3.10;;;;;;;;;;5050107;28;20446;-85
2023/09/05 06:57:56;;;;;;;3.93;3.03;;;;;;;;;;5056657;28;20461;-85
2023/09/05 07:00:25;;;;;;;3.10;2.60;;;;;;;;;;5058761;28;20472;-84
2023/09/05 07:02:52;;;;;;;4.67;2.40;;;;;;;;;;5055329;28;20837;-85
2023/09/05 07:05:20;;;;;;;3.23;2.53;;;;;;;;;;5057650;28;20473;-84
2023/09/05 07:07:48;;;;;;;3.47;2.23;;;;;;;;;;5060837;28;20503;-84
2023/09/05 07:10:16;;;;;;;3.13;2.70;;;;;;;;;;5055461;28;20517;-85
2023/09/05 07:12:43;;;;;;;4.17;2.67;;;;;;;;;;5055298;28;20511;-85
2023/09/05 07:15:10;;;;;;;3.23;2.60;;;;;;;;;;5055534;28;20480;-85
2023/09/05 07:17:38;;;;;;;3.47;2.70;;;;;;;;;;5050944;28;20938;-84
2023/09/05 07:20:05;;;;;;;3.70;1.93;;;;;;;;;;5056123;28;20957;-85
2023/09/05 07:22:32;;;;;;;2.80;1.87;;;;;;;;;;5071393;28;20521;-85
2023/09/05 07:25:01;;;;;;;2.87;2.57;;;;;;;;;;5040431;28;20470;-83
2023/09/05 07:27:28;;;;;;;4.27;2.33;;;;;;;;;;5054632;28;20438;-85
2023/09/05 07:29:56;;;;;;;4.00;2.47;;;;;;;;;;5056186;28;20469;-84
2023/09/05 07:32:23;;;;;;;3.40;3.00;;;;;;;;;;5045879;28;20450;-85
2023/09/05 07:34:50;;;;;;;2.87;2.40;;;;;;;;;;5050031;28;20961;-84
2023/09/05 07:37:18;;;;;;;4.27;2.63;;;;;;;;;;5064196;28;20436;-83
2023/09/05 07:39:47;;;;;;;3.37;2.70;;;;;;;;;;5061582;28;20440;-83
2023/09/05 07:42:15;;;;;;;5.20;3.20;;;;;;;;;;5052188;28;20458;-83
2023/09/05 07:44:43;;;;;;;3.23;2.77;;;;;;;;;;5052057;28;20469;-83
2023/09/05 07:47:10;;;;;;;4.20;3.27;;;;;;;;;;5050032;28;20453;-83
2023/09/05 07:49:37;;;;;;;3.57;2.63;;;;;;;;;;5052063;28;20484;-83
2023/09/05 07:52:05;;;;;;;5.23;2.50;;;;;;;;;;5052599;28;20489;-83
2023/09/05 07:54:33;;;;;;;3.23;2.50;;;;;;;;;;5054264;28;20522;-83
2023/09/05 07:57:01;;;;;;;4.50;2.77;;;;;;;;;;5054263;28;20445;-83
2023/09/05 07:59:31;;;;;;;5.13;3.00;;;;;;;;;;5054879;28;20446;-83
2023/09/05 08:01:58;;;;;;;5.07;2.10;;;;;;;;;;5054508;28;20508;-83
2023/09/05 08:04:26;;;;;;;3.40;2.60;;;;;;;;;;5054495;28;20445;-83
2023/09/05 08:06:53;;;;;;;3.33;2.50;;;;;;;;;;5054216;28;20477;-83
2023/09/05 08:09:20;;;;;;;4.67;2.93;;;;;;;;;;5054951;28;20441;-83
2023/09/05 08:11:47;;;;;;;3.70;2.80;;;;;;;;;;5054199;28;20532;-83
2023/09/05 08:14:15;;;;;;;2.97;2.67;;;;;;;;;;5055028;28;20858;-83
2023/09/05 08:16:43;;;;;;;3.87;2.67;;;;;;;;;;5054508;28;20874;-83
2023/09/05 08:19:10;;;;;;;3.37;2.73;;;;;;;;;;5054500;28;20454;-83
2023/09/05 08:21:38;;;;;;;4.47;2.53;;;;;;;;;;5054101;28;20457;-83
2023/09/05 08:24:05;;;;;;;4.73;2.50;;;;;;;;;;5054354;28;20477;-83
2023/09/05 08:26:33;;;;;;;5.90;2.70;;;;;;;;;;5054369;28;20484;-83
2023/09/05 08:29:03;;;;;;;3.73;2.87;;;;;;;;;;5054608;28;20468;-83
2023/09/05 08:31:30;;;;;;;3.63;2.60;;;;;;;;;;5051441;28;20489;-82
2023/09/05 08:33:59;;;;;;;3.37;2.90;;;;;;;;;;5052566;28;20478;-82
2023/09/05 08:36:27;;;;;;;3.80;2.90;;;;;;;;;;5051478;28;21054;-82
2023/09/05 08:38:55;;;;;;;5.07;2.40;;;;;;;;;;5051349;28;20473;-82
2023/09/05 08:41:23;;;;;;;3.93;2.53;;;;;;;;;;5050985;28;20894;-82
2023/09/05 08:43:50;;;;;;;2.83;2.50;;;;;;;;;;5051584;28;20446;-82
2023/09/05 08:46:17;;;;;;;3.10;2.60;;;;;;;;;;5051579;28;20481;-85
2023/09/05 08:48:45;;;;;;;3.47;2.43;;;;;;;;;;5053028;28;20924;-83
2023/09/05 08:51:15;;;;;;;2.80;2.50;;;;;;;;;;5049205;28;20512;-82
2023/09/05 08:53:46;;;;;;;3.40;2.67;;;;;;;;;;5039723;28;20469;-83
2023/09/05 08:56:13;;;;;;;3.77;3.20;;;;;;;;;;5052773;28;20469;-82
2023/09/05 08:58:41;;;;;;;4.47;2.50;;;;;;;;;;5052808;28;20465;-82
2023/09/05 09:01:08;;;;;;;3.10;2.50;;;;;;;;;;5049008;28;20461;-83
2023/09/05 09:03:36;;;;;;;3.33;2.43;;;;;;;;;;5048486;28;20503;-83
2023/09/05 09:06:03;;;;;;;3.77;2.83;;;;;;;;;;5052853;28;20442;-83
2023/09/05 09:08:40;;;;;;;2.47;2.20;;;;;;;;;;5053452;28;20433;-83
2023/09/05 09:11:08;;;;;;;3.30;3.00;;;;;;;;;;5065498;28;20487;-83
2023/09/05 09:13:35;;;;;;;5.47;3.43;;;;;;;;;;5066975;28;20438;-82
2023/09/05 09:16:02;;;;;;;3.30;2.57;;;;;;;;;;5053149;28;20526;-82
2023/09/05 09:18:31;;;;;;;5.00;2.60;;;;;;;;;;5057500;28;20438;-83
2023/09/05 09:21:00;;;;;;;4.93;2.33;;;;;;;;;;5052901;28;20621;-83
2023/09/05 09:23:28;;;;;;;2.70;2.10;;;;;;;;;;5056572;28;20445;-83
2023/09/05 09:25:57;;;;;;;6.63;2.80;;;;;;;;;;5063098;28;20924;-83
2023/09/05 09:28:28;;;;;;;3.63;2.70;;;;;;;;;;5052852;28;20511;-83
2023/09/05 09:30:59;;;;;;;4.30;2.20;;;;;;;;;;5052338;28;20477;-83
2023/09/05 09:33:26;;;;;;;3.20;2.53;;;;;;;;;;5052475;28;20465;-83
2023/09/05 09:36:03;;;;;;;3.00;2.23;;;;;;;;;;5056611;28;20441;-83
2023/09/05 09:38:31;;;;;;;3.53;2.60;;;;;;;;;;5058465;28;20449;-83
2023/09/05 09:41:01;;;;;;;4.10;2.70;;;;;;;;;;5051865;28;20453;-83
2023/09/05 09:43:29;;;;;;;3.47;2.60;;;;;;;;;;5050802;28;20476;-82
2023/09/05 09:45:57;;;;;;;3.30;2.50;;;;;;;;;;5042575;28;20446;-82
2023/09/05 09:48:26;;;;;;;3.67;2.80;;;;;;;;;;5044839;28;20495;-83
2023/09/05 09:50:55;;;;;;;3.67;2.67;;;;;;;;;;5051351;28;20552;-82
2023/09/05 09:53:30;;;;;;;3.70;2.73;;;;;;;;;;5051674;28;20927;-83
2023/09/05 09:55:57;;;;;;;2.83;2.30;;;;;;;;;;5050994;28;20441;-82
2023/09/05 09:58:26;;;;;;;5.03;2.73;;;;;;;;;;5051770;28;20499;-82
2023/09/05 10:00:55;;;;;;;3.47;3.13;;;;;;;;;;5034282;28;21005;-82
2023/09/05 10:03:24;;;;;;;2.60;2.20;;;;;;;;;;5035937;28;20454;-82
2023/09/05 10:05:53;;;;;;;4.00;2.57;;;;;;;;;;5050897;28;20447;-83
2023/09/05 10:08:21;;;;;;;4.13;3.30;;;;;;;;;;5050959;28;20496;-83
2023/09/05 10:10:51;;;;;;;3.83;2.80;;;;;;;;;;5055723;28;20899;-82
2023/09/05 10:13:21;;;;;;;3.00;2.30;;;;;;;;;;5056404;28;20434;-83
2023/09/05 10:15:50;;;;;;;3.87;3.00;;;;;;;;;;5055144;28;20814;-83
2023/09/05 10:18:18;;;;;;;3.83;3.00;;;;;;;;;;5056625;28;20434;-82
2023/09/05 10:20:46;;;;;;;3.37;2.60;;;;;;;;;;5056294;28;20461;-82
2023/09/05 10:23:14;;;;;;;3.07;2.60;;;;;;;;;;5056409;28;20977;-83
2023/09/05 10:25:42;;;;;;;3.80;3.03;;;;;;;;;;5055788;28;20440;-83
2023/09/05 10:28:10;;;;;;;4.00;3.20;;;;;;;;;;5056189;28;20461;-83
2023/09/05 10:30:40;;;;;;;9.10;2.83;;;;;;;;;;5055438;28;20465;-83
2023/09/05 10:33:10;;;;;;;3.07;2.53;;;;;;;;;;5055488;28;20476;-82
2023/09/05 10:35:37;;;;;;;2.60;2.40;;;;;;;;;;5055128;28;20901;-82
2023/09/05 10:38:07;;;;;;;3.40;2.73;;;;;;;;;;5055191;28;20873;-83
2023/09/05 10:40:35;;;;;;;3.03;2.43;;;;;;;;;;5054966;28;20829;-82
2023/09/05 10:43:03;;;;;;;3.63;2.83;;;;;;;;;;5056450;28;20491;-83
2023/09/05 10:45:32;;;;;;;3.97;3.10;;;;;;;;;;5076195;28;20456;-81
2023/09/05 10:48:01;;;;;;;7.10;2.90;;;;;;;;;;5058643;28;20880;-82
2023/09/05 10:50:29;;;;;;;3.50;2.80;;;;;;;;;;5055395;28;20471;-82
2023/09/05 10:53:30;;;;;;;4.10;2.60;;;;;;;;;;5064392;28;20504;-82
2023/09/05 10:55:57;;;;;;;3.17;2.63;;;;;;;;;;4983515;28;20448;-83
2023/09/05 10:58:53;;;;;;;4.60;3.20;;;;;;;;;;4983379;28;20444;-83
2023/09/05 11:01:43;;;;;;;3.30;3.00;;;;;;;;;;5011040;28;20905;-83
2023/09/05 11:04:18;;;;;;;3.00;2.70;;;;;;;;;;5052017;28;20524;-83
2023/09/05 11:06:55;;;;;;;5.10;3.20;;;;;;;;;;5053840;28;20420;-83
2023/09/05 11:09:24;;;;;;;4.00;3.30;;;;;;;;;;5055762;28;20437;-83
2023/09/05 11:11:52;;;;;;;3.13;2.80;;;;;;;;;;5053733;28;20469;-83
2023/09/05 11:14:29;;;;;;;3.10;2.80;;;;;;;;;;5053374;28;20463;-83
2023/09/05 11:16:57;;;;;;;3.30;2.80;;;;;;;;;;5051813;28;20468;-83
2023/09/05 11:19:35;;;;;;;3.43;2.77;;;;;;;;;;5052999;28;20445;-83
2023/09/05 11:22:10;;;;;;;5.00;2.70;;;;;;;;;;5053857;28;20467;-83
2023/09/05 11:24:38;;;;;;;3.40;2.70;;;;;;;;;;5054745;28;20449;-83
2023/09/05 11:27:06;;;;;;;4.47;2.70;;;;;;;;;;5053411;28;20449;-83
2023/09/05 11:29:34;;;;;;;3.10;2.43;;;;;;;;;;5054356;28;20441;-83
2023/09/05 11:32:01;;;;;;;3.30;3.00;;;;;;;;;;5053419;28;20493;-83
2023/09/05 11:34:29;;;;;;;4.13;2.93;;;;;;;;;;5053525;28;20492;-83
2023/09/05 11:36:56;;;;;;;3.27;2.70;;;;;;;;;;5052772;28;20507;-83
2023/09/05 11:39:28;;;;;;;9.67;2.73;;;;;;;;;;5053998;28;20444;-83
2023/09/05 11:41:58;;;;;;;3.60;2.53;;;;;;;;;;5053453;28;20489;-83
2023/09/05 11:44:32;;;;;;;4.43;2.80;;;;;;;;;;5054038;28;20449;-83
2023/09/05 11:47:00;;;;;;;4.13;2.60;;;;;;;;;;5053401;28;20477;-83
2023/09/05 11:49:27;;;;;;;3.97;2.33;;;;;;;;;;5054128;28;20487;-83
2023/09/05 11:51:55;;;;;;;4.30;2.60;;;;;;;;;;5053431;28;20998;-83
2023/09/05 11:54:22;;;;;;;3.20;2.50;;;;;;;;;;5053665;28;20464;-83
2023/09/05 11:56:51;;;;;;;3.03;2.30;;;;;;;;;;5053484;28;20922;-83
2023/09/05 11:59:18;;;;;;;3.40;2.57;;;;;;;;;;5054159;28;20432;-83
2023/09/05 12:01:46;;;;;;;2.90;2.30;;;;;;;;;;5053470;28;20898;-83
2023/09/05 12:04:13;;;;;;;3.30;2.50;;;;;;;;;;5054255;28;20506;-83
2023/09/05 12:06:40;;;;;;;3.60;2.47;;;;;;;;;;5053012;28;20442;-83
2023/09/05 12:09:10;;;;;;;3.67;2.77;;;;;;;;;;5055068;28;20438;-83
2023/09/05 12:11:37;;;;;;;2.77;2.40;;;;;;;;;;5054408;28;20457;-83
2023/09/05 12:14:07;;;;;;;4.30;3.13;;;;;;;;;;5052816;28;20481;-83
2023/09/05 12:16:35;;;;;;;3.40;2.70;;;;;;;;;;5052108;28;20473;-83
2023/09/05 12:19:03;;;;;;;2.90;2.57;;;;;;;;;;5064805;28;20445;-84
2023/09/05 12:21:40;;;;;;;3.73;2.93;;;;;;;;;;5058674;28;20457;-83
2023/09/05 12:24:17;;;;;;;3.63;3.00;;;;;;;;;;5053685;28;20436;-83
2023/09/05 12:26:44;;;;;;;2.97;2.63;;;;;;;;;;5048142;28;20477;-83
2023/09/05 12:29:15;;;;;;;3.53;2.60;;;;;;;;;;5053730;28;20506;-83
2023/09/05 12:31:44;;;;;;;3.90;2.97;;;;;;;;;;5053732;28;20466;-83
2023/09/05 12:34:12;;;;;;;3.20;2.73;;;;;;;;;;5054267;28;20445;-84
2023/09/05 12:36:39;;;;;;;4.00;2.53;;;;;;;;;;5055266;28;20532;-84
2023/09/05 12:39:06;;;;;;;3.00;2.57;;;;;;;;;;5056348;28;20430;-84
2023/09/05 12:41:34;;;;;;;3.90;2.93;;;;;;;;;;5055150;28;20550;-84
2023/09/05 12:44:01;;;;;;;3.53;2.93;;;;;;;;;;5055930;28;20456;-84
2023/09/05 12:46:30;;;;;;;4.87;2.80;;;;;;;;;;5056400;28;20878;-84
2023/09/05 12:48:57;;;;;;;3.17;2.67;;;;;;;;;;5056513;28;20441;-84
2023/09/05 12:51:25;;;;;;;3.70;2.80;;;;;;;;;;5055882;28;20500;-84
2023/09/05 12:53:52;;;;;;;3.00;2.43;;;;;;;;;;5056728;28;20485;-84
2023/09/05 12:56:20;;;;;;;3.57;2.47;;;;;;;;;;5055983;28;20429;-84
2023/09/05 12:58:47;;;;;;;2.80;2.30;;;;;;;;;;5055910;28;20498;-84
2023/09/05 13:01:14;;;;;;;2.60;2.10;;;;;;;;;;5055073;28;20457;-84
2023/09/05 13:03:43;;;;;;;3.57;2.40;;;;;;;;;;5056027;28;20961;-84
2023/09/05 13:06:11;;;;;;;3.20;2.70;;;;;;;;;;5054700;28;20469;-84
2023/09/05 13:08:39;;;;;;;2.70;2.00;;;;;;;;;;5055432;28;20511;-85
2023/09/05 13:11:07;;;;;;;2.90;2.60;;;;;;;;;;5055826;28;20557;-84
2023/09/05 13:13:35;;;;;;;2.93;2.50;;;;;;;;;;5054623;28;20481;-84
2023/09/05 13:16:02;;;;;;;4.90;2.50;;;;;;;;;;5054019;28;20469;-84
2023/09/05 13:18:30;;;;;;;3.13;2.60;;;;;;;;;;5054380;28;20866;-84
2023/09/05 13:20:59;;;;;;;3.93;2.70;;;;;;;;;;5053482;28;20493;-84
2023/09/05 13:23:26;;;;;;;3.10;2.77;;;;;;;;;;5054795;28;20445;-85
2023/09/05 13:25:53;;;;;;;3.30;2.40;;;;;;;;;;5054180;28;20814;-84
2023/09/05 13:28:22;;;;;;;3.50;2.80;;;;;;;;;;5054930;28;20527;-84
2023/09/05 13:30:49;;;;;;;3.20;2.90;;;;;;;;;;5054645;28;20611;-84
2023/09/05 13:33:17;;;;;;;3.00;2.60;;;;;;;;;;5054882;28;20516;-84
2023/09/05 13:35:44;;;;;;;3.33;2.90;;;;;;;;;;5054664;28;20441;-84
2023/09/05 13:38:13;;;;;;;4.37;2.67;;;;;;;;;;5055174;28;20445;-84
2023/09/05 13:40:40;;;;;;;2.80;2.47;;;;;;;;;;5055038;28;20505;-84
2023/09/05 13:43:08;;;;;;;4.33;2.17;;;;;;;;;;5054438;28;20485;-84
2023/09/05 13:45:35;;;;;;;3.33;2.40;;;;;;;;;;5054492;28;20536;-84
2023/09/05 13:48:02;;;;;;;3.20;2.47;;;;;;;;;;5055229;28;20798;-84
2023/09/05 13:50:30;;;;;;;3.50;2.90;;;;;;;;;;5054553;28;20460;-84
2023/09/05 13:52:57;;;;;;;3.17;2.40;;;;;;;;;;5065522;28;20469;-84
2023/09/05 13:55:25;;;;;;;2.70;2.50;;;;;;;;;;5060036;28;20449;-84
2023/09/05 13:57:53;;;;;;;3.13;2.63;;;;;;;;;;5053076;28;20860;-84
2023/09/05 14:00:21;;;;;;;3.30;2.50;;;;;;;;;;5053506;28;20473;-84
2023/09/05 14:02:48;;;;;;;3.77;2.07;;;;;;;;;;5053855;28;20476;-84
2023/09/05 14:05:16;;;;;;;3.53;2.50;;;;;;;;;;5053822;28;20445;-84
2023/09/05 14:07:43;;;;;;;3.00;2.50;;;;;;;;;;5054265;28;20449;-84
2023/09/05 14:10:12;;;;;;;5.40;2.47;;;;;;;;;;5054343;28;20445;-84
2023/09/05 14:12:40;;;;;;;2.90;2.33;;;;;;;;;;5053656;28;21075;-85
2023/09/05 14:15:08;;;;;;;3.43;2.33;;;;;;;;;;5054842;28;20472;-84
2023/09/05 14:17:35;;;;;;;3.10;2.20;;;;;;;;;;5055379;28;20442;-84
2023/09/05 14:20:03;;;;;;;2.80;2.10;;;;;;;;;;5054926;28;20446;-84
2023/09/05 14:22:30;;;;;;;3.40;2.00;;;;;;;;;;5054934;28;20523;-84
2023/09/05 14:24:58;;;;;;;3.77;2.77;;;;;;;;;;5054442;28;20483;-84
2023/09/05 14:27:26;;;;;;;2.70;2.40;;;;;;;;;;5054434;28;20445;-84
2023/09/05 14:29:54;;;;;;;2.97;2.20;;;;;;;;;;5054787;28;20449;-85
2023/09/05 14:32:22;;;;;;;2.50;2.10;;;;;;;;;;5054376;28;20485;-84
2023/09/05 14:34:53;;;;;;;3.10;2.40;;;;;;;;;;5055166;28;20828;-84
2023/09/05 14:37:21;;;;;;;3.60;2.40;;;;;;;;;;5054930;28;20438;-84
2023/09/05 14:39:48;;;;;;;2.70;2.00;;;;;;;;;;5054696;28;20480;-85
2023/09/05 14:42:16;;;;;;;2.97;2.63;;;;;;;;;;5054481;28;20492;-85
2023/09/05 14:44:44;;;;;;;2.67;2.20;;;;;;;;;;5054769;28;20528;-85
2023/09/05 14:47:15;;;;;;;5.30;3.00;;;;;;;;;;5054526;28;20513;-84
2023/09/05 14:49:42;;;;;;;4.00;2.27;;;;;;;;;;5055078;28;20532;-84
2023/09/05 14:52:09;;;;;;;3.07;2.07;;;;;;;;;;5054822;28;20449;-85